WetterOnline ( https://www.wetteronline.de )

Wetter aktuell Ludwigsfelde

Aktuelles Wetter: Potsdam (100m)

6-stündlich | Neueste Meldungen
Ortszeit Temperatur Wetter
So, 29.11. 7:00 -0.5° C gefrierender Regen
So, 29.11. 1:00 0.6° C wolkenlos
Sa, 28.11. 19:00 3.2° C bedeckt
Sa, 28.11. 13:00 4.1° C bewölkt
Sa, 28.11. 7:00 2.3° C bedeckt
Sa, 28.11. 1:00 3.4° C bedeckt
Fr, 27.11. 19:00 4.0° C bedeckt
Fr, 27.11. 13:00 7.8° C leicht bewölkt
Ortszeit Temperatur Wetter
So, 29.11. 11:00 1.4° C Nebel (abnehmend)
So, 29.11. 10:50 1.4° C bewölkt
So, 29.11. 10:40 1.1° C Sprühregen
So, 29.11. 10:30 1.1° C Nebel (abnehmend)
So, 29.11. 10:20 1.1° C Nebel
So, 29.11. 10:10 0.9° C Nebel
So, 29.11. 10:00 0.9° C bedeckt, nach Regen
So, 29.11. 9:30 0.3° C Nebel
So, 29.11. 9:00 -0.1° C Nebel (zunehmend)
So, 29.11. 8:30 -0.3° C gefrierender Regen
So, 29.11. 8:00 -0.4° C gefrierender Regen
Ortszeit Relative Feuchte Sichtweite
So, 29.11. 7:00 99% 0.8 km
So, 29.11. 1:00 96% 14 km
Sa, 28.11. 19:00 82% 30 km
Sa, 28.11. 13:00 71% 40 km
Sa, 28.11. 7:00 85% 28 km
Sa, 28.11. 1:00 92% 14 km
Fr, 27.11. 19:00 94% 6 km
Fr, 27.11. 13:00 79% 18 km
Ortszeit Relative Feuchte Sichtweite
So, 29.11. 11:00 98% 0.5 km
So, 29.11. 10:50 98% -
So, 29.11. 10:40 99% -
So, 29.11. 10:30 99% 100 m
So, 29.11. 10:20 99% -
So, 29.11. 10:10 98% -
So, 29.11. 10:00 99% 100 m
So, 29.11. 9:30 99% 100 m
So, 29.11. 9:00 99% 100 m
So, 29.11. 8:30 99% 0.8 km
So, 29.11. 8:00 99% 0.8 km
Ortszeit Niederschlagsmenge Niederschlagsart
So, 29.11. 7:00 0.1 l/m2 in 12 Std. Nebel
So, 29.11. 1:00 0.0 l/m2 in 6 Std. -
Sa, 28.11. 19:00 0.0 l/m2 in 12 Std. -
Sa, 28.11. 13:00 0.0 l/m2 in 6 Std. -
Sa, 28.11. 7:00 0.0 l/m2 in 12 Std. -
Sa, 28.11. 1:00 0.0 l/m2 in 6 Std. -
Fr, 27.11. 19:00 0.3 l/m2 in 12 Std. -
Fr, 27.11. 13:00 0.3 l/m2 in 6 Std. Regen, Nebel
Ortszeit Niederschlagsmenge Niederschlagsart
So, 29.11. 11:00 0.2 l/m2 in 1 Std. Regen, Nebel
So, 29.11. 10:50 keine Meldung -
So, 29.11. 10:40 keine Meldung -
So, 29.11. 10:30 0.0 l/m2 in 1 Std. -
So, 29.11. 10:20 keine Meldung -
So, 29.11. 10:10 keine Meldung -
So, 29.11. 10:00 0.1 l/m2 in 1 Std. Regen, Nebel
So, 29.11. 9:30 0.1 l/m2 in 1 Std. -
So, 29.11. 9:00 0.1 l/m2 in 1 Std. Regen, Nebel
So, 29.11. 8:30 0.1 l/m2 in 1 Std. -
So, 29.11. 8:00 0.1 l/m2 in 1 Std. Regen, Nebel
Ortszeit Stärke Spitze Richtung
km/h Bft. km/h Grad Sektor
So, 29.11. 7:00 11 2 14 280° W
So, 29.11. 1:00 11 2 14 20° N
Sa, 28.11. 19:00 7 2 18 320° NW
Sa, 28.11. 13:00 7 2 14 80° O
Sa, 28.11. 7:00 4 1 18 90° O
Sa, 28.11. 1:00 7 2 18 90° O
Fr, 27.11. 19:00 9 2 19 70° O
Fr, 27.11. 13:00 4 1 11 80° O
Ortszeit Stärke Spitze Richtung
km/h Bft. km/h Grad Sektor
So, 29.11. 11:00 9 2 15 290° W
So, 29.11. 10:50 9 2 - 290° W
So, 29.11. 10:40 9 2 - 280° W
So, 29.11. 10:30 9 2 15 300° NW
So, 29.11. 10:20 9 2 - 300° NW
So, 29.11. 10:10 9 2 - 300° NW
So, 29.11. 10:00 11 2 18 290° W
So, 29.11. 9:30 9 2 15 290° W
So, 29.11. 9:00 11 2 14 290° W
So, 29.11. 8:30 11 2 14 280° W
So, 29.11. 8:00 11 2 17 260° W
Ortszeit Untergrenze Bedeckung Gattung
total tief tief mittel hoch
So, 29.11. 7:00 <30 m 8/8 0/8 - - -
So, 29.11. 1:00 - 0/8 0/8 - - -
Sa, 28.11. 19:00 1020 m 8/8 8/8 - - -
Sa, 28.11. 13:00 600 m 7/8 7/8 Sc - -
Sa, 28.11. 7:00 270 m 8/8 8/8 Sc - -
Sa, 28.11. 1:00 240 m 8/8 8/8 - - -
Fr, 27.11. 19:00 180 m 8/8 8/8 - - -
Fr, 27.11. 13:00 390 m 4/8 3/8 Cu Ac -
Ortszeit Bedeckungsgrad in Achtel und Wolkenuntergrenze
So, 29.11. 11:00 8
So, 29.11. 10:50 7(30m)
So, 29.11. 10:40 8(30m)
So, 29.11. 10:30 8(30m)
So, 29.11. 10:20 8(<30m)
So, 29.11. 10:10 8(<30m)
So, 29.11. 10:00 8(<30m)
So, 29.11. 9:30 8(<30m)
So, 29.11. 9:00 8(<30m)
So, 29.11. 8:30 8(<30m)
So, 29.11. 8:00 8(<30m)
Ortszeit Luftdruck NN (hPa) Tendenz (hPa in 3 Std.)
So, 29.11. 7:00 1027 - 0,1
So, 29.11. 1:00 1027 - 0,3
Sa, 28.11. 19:00 1026 + 0,9
Sa, 28.11. 13:00 1025 - 0,2
Sa, 28.11. 7:00 1024 + 0,5
Sa, 28.11. 1:00 1024 + 0,3
Fr, 27.11. 19:00 1023 + 0,9
Fr, 27.11. 13:00 1022 - 0,3
Ortszeit Luftdruck NN (hPa) Tendenz (hPa in 3 Std.)
So, 29.11. 11:00 1027 + 0,3
So, 29.11. 10:50 1027 keine Meldung
So, 29.11. 10:40 1027 keine Meldung
So, 29.11. 10:30 1027 + 0,5
So, 29.11. 10:20 1027 keine Meldung
So, 29.11. 10:10 1027 keine Meldung
So, 29.11. 10:00 1027 + 0,7
So, 29.11. 9:30 1027 + 0,8
So, 29.11. 9:00 1027 + 0,6
So, 29.11. 8:30 1027 + 0,4
So, 29.11. 8:00 1027 + 0,2
Ortszeit Schneehöhe (cm)
So, 29.11. 7:00 0
So, 29.11. 1:00 0
Sa, 28.11. 19:00 0
Sa, 28.11. 13:00 0
Sa, 28.11. 7:00 0
Sa, 28.11. 1:00 0
Fr, 27.11. 19:00 0
Fr, 27.11. 13:00 0
Ortszeit Schneehöhe (cm)
So, 29.11. 11:00 0
So, 29.11. 10:50 0
So, 29.11. 10:40 0
So, 29.11. 10:30 0
So, 29.11. 10:20 0
So, 29.11. 10:10 0
So, 29.11. 10:00 0
So, 29.11. 9:30 0
So, 29.11. 9:00 0
So, 29.11. 8:30 0
So, 29.11. 8:00 0
Link zu dieser Seite / Seite empfehlen

Das Wetter in ...